createdAt,value
2023-03-03T00:00:06.081Z,-0.35
2023-03-03T00:02:32.674Z,-0.35
2023-03-03T00:04:59.286Z,-0.31
2023-03-03T00:07:25.772Z,-0.26
2023-03-03T00:09:52.227Z,-0.25
2023-03-03T00:12:29.928Z,-0.32
2023-03-03T00:14:56.834Z,-0.23
2023-03-03T00:17:28.611Z,-0.22
2023-03-03T00:19:55.467Z,-0.22
2023-03-03T00:22:36.559Z,-0.21
2023-03-03T00:25:29.121Z,-0.12
2023-03-03T00:27:58.699Z,-0.16
2023-03-03T00:30:29.046Z,-0.25
2023-03-03T00:32:56.023Z,-0.23
2023-03-03T00:35:30.214Z,-0.20
2023-03-03T00:37:59.915Z,-0.22
2023-03-03T00:40:35.890Z,-0.15
2023-03-03T00:43:12.175Z,0.00
2023-03-03T00:45:48.762Z,-0.04
2023-03-03T00:48:21.151Z,0.11
2023-03-03T00:50:48.890Z,0.21
2023-03-03T00:53:17.957Z,0.27
2023-03-03T00:55:46.551Z,0.31
2023-03-03T00:58:13.452Z,0.31
2023-03-03T01:00:41.026Z,0.22
2023-03-03T01:03:12.465Z,0.17
2023-03-03T01:05:38.957Z,0.10
2023-03-03T01:08:05.912Z,0.06
2023-03-03T01:10:36.494Z,0.01
2023-03-03T01:13:04.227Z,0.01
2023-03-03T01:15:30.790Z,0.01
2023-03-03T01:17:57.345Z,-0.01
2023-03-03T01:20:23.832Z,-0.02
2023-03-03T01:22:50.387Z,-0.04
2023-03-03T01:25:16.941Z,-0.06
2023-03-03T01:27:43.493Z,-0.17
2023-03-03T01:30:10.483Z,-0.15
2023-03-03T01:32:37.047Z,-0.07
2023-03-03T01:35:03.696Z,-0.08
2023-03-03T01:37:30.226Z,-0.14
2023-03-03T01:39:57.899Z,-0.15
2023-03-03T01:42:25.658Z,-0.12
2023-03-03T01:45:10.048Z,-0.02
2023-03-03T01:47:36.610Z,-0.10
2023-03-03T01:50:13.477Z,-0.18
2023-03-03T01:52:44.522Z,-0.20
2023-03-03T01:55:22.212Z,-0.27
2023-03-03T01:57:56.553Z,-0.32
2023-03-03T02:00:23.149Z,-0.36
2023-03-03T02:02:49.932Z,-0.36
2023-03-03T02:05:16.891Z,-0.28
2023-03-03T02:07:44.542Z,-0.39
2023-03-03T02:10:18.552Z,-0.41
2023-03-03T02:12:59.863Z,-0.35
2023-03-03T02:15:32.368Z,-0.41
2023-03-03T02:18:02.611Z,-0.34
2023-03-03T02:20:41.222Z,-0.15
2023-03-03T02:23:22.839Z,-0.04
2023-03-03T02:25:59.160Z,-0.12
2023-03-03T02:28:31.844Z,-0.19
2023-03-03T02:31:00.088Z,-0.26
2023-03-03T02:33:28.240Z,-0.35
2023-03-03T02:35:55.007Z,-0.39
2023-03-03T02:38:40.354Z,-0.32
2023-03-03T02:41:29.367Z,-0.17
2023-03-03T02:44:03.769Z,-0.01
2023-03-03T02:46:35.452Z,-0.03
2023-03-03T02:49:02.391Z,0.01
2023-03-03T02:51:28.855Z,-0.22
2023-03-03T02:53:55.476Z,-0.36
2023-03-03T02:56:22.534Z,-0.22
2023-03-03T02:58:49.086Z,-0.25
2023-03-03T03:01:15.734Z,-0.31
2023-03-03T03:03:42.252Z,-0.38
2023-03-03T03:06:08.712Z,-0.39
2023-03-03T03:08:35.373Z,-0.22
2023-03-03T03:11:02.238Z,-0.22
2023-03-03T03:13:28.726Z,-0.06
2023-03-03T03:15:55.198Z,0.03
2023-03-03T03:18:21.699Z,-0.06
2023-03-03T03:20:48.573Z,-0.12
2023-03-03T03:23:15.914Z,-0.13
2023-03-03T03:25:48.279Z,-0.15
2023-03-03T03:28:16.845Z,-0.17
2023-03-03T03:30:47.244Z,-0.23
2023-03-03T03:33:13.920Z,-0.21
2023-03-03T03:35:45.534Z,-0.21
2023-03-03T03:38:12.415Z,-0.25
2023-03-03T03:40:39.056Z,-0.27
2023-03-03T03:43:05.704Z,-0.27
2023-03-03T03:45:32.431Z,-0.31
2023-03-03T03:47:58.974Z,-0.40
2023-03-03T03:50:26.341Z,-0.35
2023-03-03T03:52:52.820Z,-0.36
2023-03-03T03:55:19.327Z,-0.32
2023-03-03T03:57:45.858Z,-0.34
2023-03-03T04:00:12.740Z,-0.32
2023-03-03T04:02:39.251Z,-0.34
2023-03-03T04:05:06.278Z,-0.30
2023-03-03T04:07:32.792Z,-0.13
2023-03-03T04:09:59.576Z,-0.17
2023-03-03T04:12:26.379Z,-0.26
2023-03-03T04:14:52.872Z,-0.31
2023-03-03T04:17:20.954Z,-0.33
2023-03-03T04:19:47.589Z,-0.27
2023-03-03T04:22:15.216Z,-0.40
2023-03-03T04:24:41.956Z,-0.48
2023-03-03T04:27:11.680Z,-0.42
2023-03-03T04:29:38.120Z,-0.46
2023-03-03T04:32:07.360Z,-0.47
2023-03-03T04:34:34.015Z,-0.46
2023-03-03T04:37:00.728Z,-0.45
2023-03-03T04:39:28.215Z,-0.42
2023-03-03T04:41:54.772Z,-0.38
2023-03-03T04:44:21.432Z,-0.45
2023-03-03T04:46:47.923Z,-0.42
2023-03-03T04:49:14.394Z,-0.37
2023-03-03T04:51:40.851Z,-0.36
2023-03-03T04:54:07.356Z,-0.38
2023-03-03T04:56:33.841Z,-0.30
2023-03-03T04:59:00.295Z,-0.26
2023-03-03T05:01:26.968Z,-0.21
2023-03-03T05:03:53.478Z,-0.23
2023-03-03T05:06:20.026Z,-0.22
2023-03-03T05:08:46.981Z,-0.13
2023-03-03T05:11:14.063Z,-0.06
2023-03-03T05:13:40.827Z,-0.02
2023-03-03T05:16:07.695Z,-0.13
2023-03-03T05:18:34.286Z,-0.14
2023-03-03T05:21:01.434Z,-0.12
2023-03-03T05:23:27.938Z,-0.24
2023-03-03T05:25:54.661Z,-0.27
2023-03-03T05:28:21.261Z,-0.37
2023-03-03T05:30:47.918Z,-0.33
2023-03-03T05:33:16.017Z,-0.33
2023-03-03T05:35:42.839Z,-0.28
2023-03-03T05:38:09.411Z,-0.33
2023-03-03T05:40:36.257Z,-0.42
2023-03-03T05:43:02.821Z,-0.39
2023-03-03T05:45:29.387Z,-0.30
2023-03-03T05:47:55.862Z,-0.15
2023-03-03T05:50:23.652Z,-0.14
2023-03-03T05:52:51.792Z,-0.21
2023-03-03T05:55:19.103Z,-0.21
2023-03-03T05:57:46.236Z,-0.20
2023-03-03T06:00:14.688Z,-0.07
2023-03-03T06:02:42.266Z,-0.06
2023-03-03T06:05:09.701Z,-0.06
2023-03-03T06:07:36.504Z,0.03
2023-03-03T06:10:04.286Z,-0.02
2023-03-03T06:12:30.827Z,0.10
2023-03-03T06:14:57.294Z,0.14
2023-03-03T06:17:26.580Z,0.10
2023-03-03T06:19:53.072Z,0.15
2023-03-03T06:22:22.967Z,0.11
2023-03-03T06:24:49.536Z,0.13
2023-03-03T06:27:16.083Z,0.15
2023-03-03T06:29:42.565Z,0.08
2023-03-03T06:32:09.118Z,0.01
2023-03-03T06:34:35.701Z,-0.05
2023-03-03T06:37:02.240Z,-0.10
2023-03-03T06:39:28.847Z,-0.10
2023-03-03T06:41:55.574Z,-0.01
2023-03-03T06:44:22.167Z,-0.03
2023-03-03T06:46:48.655Z,-0.07
2023-03-03T06:49:15.199Z,-0.13
2023-03-03T06:51:42.653Z,-0.22
2023-03-03T06:54:13.459Z,-0.24
2023-03-03T06:56:41.098Z,-0.19
2023-03-03T06:59:15.432Z,-0.07
2023-03-03T07:01:43.316Z,0.03
2023-03-03T07:04:24.815Z,-0.14
2023-03-03T07:06:51.415Z,-0.25
2023-03-03T07:09:26.709Z,-0.12
2023-03-03T07:12:00.588Z,-0.10
2023-03-03T07:14:28.659Z,-0.03
2023-03-03T07:17:00.911Z,0.01
2023-03-03T07:19:35.440Z,-0.04
2023-03-03T07:22:22.417Z,-0.13
2023-03-03T07:24:53.151Z,-0.16
2023-03-03T07:27:19.641Z,-0.01
2023-03-03T07:29:51.542Z,-0.02
2023-03-03T07:32:17.947Z,-0.10
2023-03-03T07:34:47.833Z,0.06
2023-03-03T07:37:25.599Z,0.18
2023-03-03T07:39:52.071Z,0.21
2023-03-03T07:42:23.031Z,0.24
2023-03-03T07:44:52.506Z,0.29
2023-03-03T07:47:19.454Z,0.34
2023-03-03T07:49:48.049Z,0.36
2023-03-03T07:52:49.443Z,0.38
2023-03-03T07:55:39.808Z,0.41
2023-03-03T07:58:16.422Z,0.38
2023-03-03T08:00:42.965Z,0.26
2023-03-03T08:03:19.218Z,0.25
2023-03-03T08:05:51.748Z,0.39
2023-03-03T08:08:47.887Z,0.49
2023-03-03T08:11:14.407Z,0.52
2023-03-03T08:13:43.531Z,0.51
2023-03-03T08:16:10.003Z,0.46
2023-03-03T08:18:36.513Z,0.55
2023-03-03T08:21:11.244Z,0.66
2023-03-03T08:23:37.670Z,0.56
2023-03-03T08:26:04.344Z,0.45
2023-03-03T08:28:30.916Z,0.51
2023-03-03T08:31:12.582Z,0.58
2023-03-03T08:33:43.574Z,0.43
2023-03-03T08:36:10.691Z,0.42
2023-03-03T08:38:37.564Z,0.43
2023-03-03T08:41:04.658Z,0.40
2023-03-03T08:43:32.989Z,0.37
2023-03-03T08:46:01.772Z,0.47
2023-03-03T08:48:29.185Z,0.52
2023-03-03T08:50:55.729Z,0.44
2023-03-03T08:53:23.832Z,0.37
2023-03-03T08:55:50.934Z,0.36
2023-03-03T08:58:19.350Z,0.42
2023-03-03T09:00:49.249Z,0.42
2023-03-03T09:03:17.496Z,0.42
2023-03-03T09:05:47.301Z,0.54
2023-03-03T09:08:13.913Z,0.64
2023-03-03T09:10:40.512Z,0.60
2023-03-03T09:13:19.297Z,0.62
2023-03-03T09:15:47.062Z,0.62
2023-03-03T09:18:18.432Z,0.61
2023-03-03T09:20:53.019Z,0.65
2023-03-03T09:23:57.778Z,0.77
2023-03-03T09:26:45.974Z,0.77
2023-03-03T09:29:15.239Z,0.82
2023-03-03T09:31:49.194Z,0.88
2023-03-03T09:34:21.442Z,0.93
2023-03-03T09:36:49.569Z,0.91
2023-03-03T09:39:25.434Z,1.00
2023-03-03T09:42:01.094Z,0.99
2023-03-03T09:44:42.931Z,0.91
2023-03-03T09:47:33.301Z,0.79
2023-03-03T09:50:18.011Z,0.80
2023-03-03T09:52:50.718Z,0.72
2023-03-03T09:55:25.560Z,0.76
2023-03-03T09:58:10.149Z,0.78
2023-03-03T10:00:40.319Z,0.78
2023-03-03T10:03:40.797Z,0.73
2023-03-03T10:06:31.986Z,0.67
2023-03-03T10:09:09.434Z,0.74
2023-03-03T10:11:42.820Z,0.82
2023-03-03T10:14:18.913Z,0.91
2023-03-03T10:16:51.934Z,0.97
2023-03-03T10:20:06.479Z,0.93
2023-03-03T10:22:54.334Z,0.89
2023-03-03T10:25:42.353Z,1.03
2023-03-03T10:28:46.253Z,1.15
2023-03-03T10:31:46.917Z,1.37
2023-03-03T10:34:37.928Z,1.40
2023-03-03T10:37:32.204Z,1.49
2023-03-03T10:40:13.808Z,1.50
2023-03-03T10:42:45.852Z,1.35
2023-03-03T10:45:30.612Z,1.21
2023-03-03T10:48:18.919Z,1.20
2023-03-03T10:51:24.727Z,1.29
2023-03-03T10:54:03.279Z,1.30
2023-03-03T10:56:52.458Z,1.35
2023-03-03T10:59:47.305Z,1.38
2023-03-03T11:02:53.466Z,1.29
2023-03-03T11:05:40.320Z,1.18
2023-03-03T11:08:22.308Z,1.13
2023-03-03T11:11:45.113Z,1.15
2023-03-03T11:14:34.729Z,1.21
2023-03-03T11:17:47.044Z,1.15
2023-03-03T11:20:25.677Z,1.32
2023-03-03T11:23:21.384Z,1.55
2023-03-03T11:26:09.112Z,1.48
2023-03-03T11:29:03.090Z,1.40
2023-03-03T11:31:48.565Z,1.45
2023-03-03T11:34:37.246Z,1.41
2023-03-03T11:37:40.705Z,1.36
2023-03-03T11:40:24.653Z,1.37
2023-03-03T11:43:13.134Z,1.45
2023-03-03T11:45:49.802Z,1.48
2023-03-03T11:48:36.039Z,1.55
2023-03-03T11:51:19.727Z,1.57
2023-03-03T11:54:05.629Z,1.52
2023-03-03T11:56:41.055Z,1.46
2023-03-03T11:59:10.260Z,1.46
2023-03-03T12:01:45.033Z,1.65
2023-03-03T12:04:20.003Z,1.70
2023-03-03T12:07:19.524Z,1.78
2023-03-03T12:10:02.693Z,1.78
2023-03-03T12:12:41.120Z,1.83
2023-03-03T12:15:31.088Z,1.77
2023-03-03T12:18:22.349Z,1.75
2023-03-03T12:21:04.424Z,1.73
2023-03-03T12:24:04.792Z,1.67
2023-03-03T12:26:52.647Z,1.65
2023-03-03T12:29:35.564Z,1.76
2023-03-03T12:32:14.700Z,1.88
2023-03-03T12:35:24.657Z,2.04
2023-03-03T12:37:51.111Z,2.00
2023-03-03T12:40:31.941Z,1.99
2023-03-03T12:43:18.587Z,2.08
2023-03-03T12:46:28.183Z,2.04
2023-03-03T12:48:55.177Z,2.07
2023-03-03T12:51:39.234Z,2.08
2023-03-03T12:54:08.795Z,2.07
2023-03-03T12:57:00.760Z,2.06
2023-03-03T12:59:48.365Z,2.01
2023-03-03T13:02:28.315Z,2.08
2023-03-03T13:05:03.484Z,2.04
2023-03-03T13:07:48.438Z,2.03
2023-03-03T13:10:43.028Z,2.12
2023-03-03T13:13:19.981Z,2.15
2023-03-03T13:16:16.836Z,2.11
2023-03-03T13:18:55.436Z,2.27
2023-03-03T13:21:45.488Z,2.26
2023-03-03T13:24:39.728Z,2.28
2023-03-03T13:27:21.112Z,2.24
2023-03-03T13:29:59.992Z,2.22
2023-03-03T13:32:37.710Z,2.16
2023-03-03T13:35:13.564Z,2.15
2023-03-03T13:37:46.852Z,2.08
2023-03-03T13:40:13.456Z,2.07
2023-03-03T13:42:58.587Z,2.05
2023-03-03T13:45:25.094Z,2.11
2023-03-03T13:48:15.892Z,2.14
2023-03-03T13:50:50.906Z,2.22
2023-03-03T13:53:39.548Z,2.36
2023-03-03T13:56:18.962Z,2.42
2023-03-03T13:59:05.011Z,2.44
2023-03-03T14:01:49.617Z,2.29
2023-03-03T14:04:40.897Z,2.40
2023-03-03T14:07:18.102Z,2.33
2023-03-03T14:10:01.029Z,2.37
2023-03-03T14:12:45.703Z,2.32
2023-03-03T14:15:24.754Z,2.32
2023-03-03T14:18:24.162Z,2.50
2023-03-03T14:20:59.791Z,2.49
2023-03-03T14:23:29.242Z,2.52
2023-03-03T14:26:09.666Z,2.56
2023-03-03T14:28:45.319Z,2.49
2023-03-03T14:31:26.761Z,2.47
2023-03-03T14:34:22.490Z,2.37
2023-03-03T14:36:51.118Z,2.34
2023-03-03T14:39:37.223Z,2.41
2023-03-03T14:42:48.309Z,2.49
2023-03-03T14:45:40.530Z,2.55
2023-03-03T14:48:17.528Z,2.61
2023-03-03T14:50:51.803Z,2.58
2023-03-03T14:53:18.219Z,2.59
2023-03-03T14:55:51.518Z,2.62
2023-03-03T14:58:28.826Z,2.54
2023-03-03T15:01:16.264Z,2.55
2023-03-03T15:03:55.531Z,2.50
2023-03-03T15:06:46.610Z,2.45
2023-03-03T15:09:48.308Z,2.47
2023-03-03T15:12:19.524Z,2.41
2023-03-03T15:14:49.163Z,2.44
2023-03-03T15:17:35.453Z,2.37
2023-03-03T15:20:20.363Z,2.38
2023-03-03T15:23:18.430Z,2.36
2023-03-03T15:25:58.832Z,2.43
2023-03-03T15:28:31.046Z,2.42
2023-03-03T15:31:03.440Z,2.41
2023-03-03T15:33:37.852Z,2.26
2023-03-03T15:36:27.014Z,2.26
2023-03-03T15:39:10.099Z,2.31
2023-03-03T15:41:54.951Z,2.30
2023-03-03T15:44:31.960Z,2.29
2023-03-03T15:47:16.070Z,2.30
2023-03-03T15:50:03.605Z,2.29
2023-03-03T15:52:49.264Z,2.26
2023-03-03T15:55:42.153Z,2.29
2023-03-03T15:58:25.668Z,2.32
2023-03-03T16:01:12.213Z,2.23
2023-03-03T16:03:48.281Z,2.20
2023-03-03T16:06:37.350Z,2.19
2023-03-03T16:09:31.381Z,2.22
2023-03-03T16:11:58.009Z,2.19
2023-03-03T16:14:43.013Z,2.12
2023-03-03T16:17:27.549Z,2.07
2023-03-03T16:20:17.643Z,2.04
2023-03-03T16:23:03.993Z,2.00
2023-03-03T16:25:42.398Z,1.91
2023-03-03T16:28:26.176Z,1.84
2023-03-03T16:30:59.073Z,1.78
2023-03-03T16:33:34.616Z,1.71
2023-03-03T16:36:16.386Z,1.67
2023-03-03T16:38:58.889Z,1.59
2023-03-03T16:41:44.137Z,1.54
2023-03-03T16:44:22.854Z,1.52
2023-03-03T16:46:50.550Z,1.47
2023-03-03T16:49:52.682Z,1.39
2023-03-03T16:52:33.716Z,1.33
2023-03-03T16:55:12.240Z,1.27
2023-03-03T16:58:08.602Z,1.22
2023-03-03T17:00:45.188Z,1.16
2023-03-03T17:03:46.905Z,1.12
2023-03-03T17:06:23.439Z,1.06
2023-03-03T17:08:56.361Z,1.01
2023-03-03T17:11:50.184Z,0.94
2023-03-03T17:14:31.431Z,0.92
2023-03-03T17:17:05.899Z,0.94
2023-03-03T17:19:38.393Z,0.92
2023-03-03T17:22:07.706Z,0.90
2023-03-03T17:24:57.620Z,0.82
2023-03-03T17:27:36.274Z,0.77
2023-03-03T17:30:14.491Z,0.74
2023-03-03T17:32:52.409Z,0.74
2023-03-03T17:35:40.726Z,0.73
2023-03-03T17:38:12.937Z,0.78
2023-03-03T17:40:58.262Z,0.68
2023-03-03T17:43:50.147Z,0.68
2023-03-03T17:46:39.797Z,0.66
2023-03-03T17:49:22.273Z,0.68
2023-03-03T17:51:59.756Z,0.73
2023-03-03T17:54:53.431Z,0.74
2023-03-03T17:57:40.679Z,0.75
2023-03-03T18:00:32.762Z,0.76
2023-03-03T18:03:08.396Z,0.78
2023-03-03T18:05:54.473Z,0.83
2023-03-03T18:08:46.993Z,0.76
2023-03-03T18:11:35.357Z,0.76
2023-03-03T18:14:17.236Z,0.77
2023-03-03T18:17:08.207Z,0.76
2023-03-03T18:19:57.128Z,0.78
2023-03-03T18:22:31.743Z,0.81
2023-03-03T18:25:13.584Z,0.83
2023-03-03T18:28:04.806Z,0.90
2023-03-03T18:30:51.973Z,0.94
2023-03-03T18:33:34.922Z,0.98
2023-03-03T18:36:15.769Z,0.99
2023-03-03T18:38:46.746Z,1.02
2023-03-03T18:41:22.501Z,1.06
2023-03-03T18:44:27.535Z,1.03
2023-03-03T18:46:55.688Z,1.06
2023-03-03T18:49:40.647Z,1.06
2023-03-03T18:52:37.041Z,1.07
2023-03-03T18:55:09.505Z,1.09
2023-03-03T18:57:39.437Z,1.14
2023-03-03T19:00:21.512Z,1.16
2023-03-03T19:02:52.706Z,1.19
2023-03-03T19:05:23.241Z,1.20
2023-03-03T19:08:02.988Z,1.16
2023-03-03T19:11:02.958Z,1.16
2023-03-03T19:13:32.263Z,1.15
2023-03-03T19:16:02.995Z,1.18
2023-03-03T19:18:34.174Z,1.20
2023-03-03T19:21:18.523Z,1.26
2023-03-03T19:23:51.103Z,1.33
2023-03-03T19:26:28.919Z,1.34
2023-03-03T19:29:16.951Z,1.36
2023-03-03T19:31:53.084Z,1.41
2023-03-03T19:34:50.327Z,1.41
2023-03-03T19:38:11.135Z,1.42
2023-03-03T19:41:18.113Z,1.44
2023-03-03T19:44:12.922Z,1.42
2023-03-03T19:47:04.438Z,1.51
2023-03-03T19:49:53.139Z,1.54
2023-03-03T19:52:33.049Z,1.60
2023-03-03T19:55:24.762Z,1.66
2023-03-03T19:58:24.024Z,1.67
2023-03-03T20:01:14.129Z,1.74
2023-03-03T20:04:11.005Z,1.82
2023-03-03T20:06:56.414Z,1.84
2023-03-03T20:09:53.509Z,1.89
2023-03-03T20:12:29.103Z,1.92
2023-03-03T20:15:09.766Z,1.95
2023-03-03T20:17:52.252Z,2.01
2023-03-03T20:20:41.119Z,2.06
2023-03-03T20:23:27.568Z,2.07
2023-03-03T20:26:01.885Z,2.08
2023-03-03T20:29:05.560Z,2.10
2023-03-03T20:31:39.522Z,2.13
2023-03-03T20:34:12.146Z,2.15
2023-03-03T20:36:47.802Z,2.16
2023-03-03T20:39:37.877Z,2.17
2023-03-03T20:42:13.600Z,2.25
2023-03-03T20:45:04.693Z,2.28
2023-03-03T20:47:46.610Z,2.29
2023-03-03T20:50:27.899Z,2.36
2023-03-03T20:53:07.532Z,2.34
2023-03-03T20:56:05.480Z,2.32
2023-03-03T20:59:06.017Z,2.35
2023-03-03T21:01:53.737Z,2.33
2023-03-03T21:04:26.475Z,2.33
2023-03-03T21:06:53.769Z,2.36
2023-03-03T21:09:23.010Z,2.38
2023-03-03T21:11:49.484Z,2.40
2023-03-03T21:14:27.783Z,2.41
2023-03-03T21:16:57.040Z,2.42
2023-03-03T21:19:34.756Z,2.43
2023-03-03T21:22:02.749Z,2.42
2023-03-03T21:24:48.982Z,2.43
2023-03-03T21:27:38.502Z,2.46
2023-03-03T21:30:19.270Z,2.50
2023-03-03T21:32:48.200Z,2.52
2023-03-03T21:35:22.219Z,2.54
2023-03-03T21:37:53.569Z,2.55
2023-03-03T21:40:27.427Z,2.54
2023-03-03T21:42:57.073Z,2.53
2023-03-03T21:45:29.953Z,2.53
2023-03-03T21:48:02.450Z,2.55
2023-03-03T21:50:35.521Z,2.57
2023-03-03T21:53:04.648Z,2.58
2023-03-03T21:55:43.242Z,2.61
2023-03-03T21:58:09.721Z,2.66
2023-03-03T22:00:36.214Z,2.66
2023-03-03T22:03:02.694Z,2.67
2023-03-03T22:05:29.167Z,2.69
2023-03-03T22:07:55.764Z,2.69
2023-03-03T22:10:22.333Z,2.68
2023-03-03T22:12:54.408Z,2.71
2023-03-03T22:15:21.405Z,2.74
2023-03-03T22:17:47.904Z,2.72
2023-03-03T22:20:15.382Z,2.73
2023-03-03T22:22:42.781Z,2.76
2023-03-03T22:25:11.404Z,2.79
2023-03-03T22:27:40.962Z,2.78
2023-03-03T22:30:08.294Z,2.75
2023-03-03T22:32:38.270Z,2.75
2023-03-03T22:35:05.150Z,2.78
2023-03-03T22:37:31.700Z,2.80
2023-03-03T22:39:58.166Z,2.83
2023-03-03T22:42:27.917Z,2.81
2023-03-03T22:44:54.488Z,2.84
2023-03-03T22:47:21.039Z,2.82
2023-03-03T22:49:47.555Z,2.79
2023-03-03T22:52:14.071Z,2.79
2023-03-03T22:54:41.091Z,2.79
2023-03-03T22:57:07.565Z,2.82
2023-03-03T22:59:34.569Z,2.83
2023-03-03T23:02:01.096Z,2.83
2023-03-03T23:04:30.450Z,2.82
2023-03-03T23:06:58.579Z,2.83
2023-03-03T23:09:28.225Z,2.82
2023-03-03T23:11:58.582Z,2.79
2023-03-03T23:14:25.814Z,2.79
2023-03-03T23:16:52.388Z,2.78
2023-03-03T23:19:18.890Z,2.77
2023-03-03T23:21:45.490Z,2.77
2023-03-03T23:24:12.223Z,2.78
2023-03-03T23:26:41.562Z,2.77
2023-03-03T23:29:08.734Z,2.79
2023-03-03T23:31:38.097Z,2.77
2023-03-03T23:34:04.801Z,2.74
2023-03-03T23:36:32.503Z,2.72
2023-03-03T23:39:01.536Z,2.69
2023-03-03T23:41:27.992Z,2.70
2023-03-03T23:44:00.581Z,2.68
2023-03-03T23:46:27.072Z,2.65
2023-03-03T23:48:53.606Z,2.66
2023-03-03T23:51:20.073Z,2.65
2023-03-03T23:53:49.211Z,2.63
2023-03-03T23:56:15.673Z,2.66
2023-03-03T23:58:44.227Z,2.61
